Preview of NWS' New Version of Forecast
This preview is not operational and should not be used for support decisions.

Terminal Aerodrome Forecast (TAF)

Issued by National Weather Service (NWS)

                            
000
FTUS46 KMTR 181127
TAFSTS
TAF
KSTS 181127Z 1812/1912 VRB03KT P6SM OVC010
     FM181900 VRB04KT P6SM SCT010
     FM182100 18010KT P6SM SKC
     FM190400 14004KT P6SM SCT010
     FM190500 14003KT P6SM OVC010=